Pagrindinis puslapis
METAR-TAF:

METAR-TAF

Oro uostai :

Arnhemas, Nyderlandai

platuma: 52-04N, ilguma: 005-53E, Aukštis: 48 m

Dabartinis oras

Ataskaita buvo paskelbta 18 minutes, ne 00:25 UTC
Vėjas 8 kt iš Šiaurės/Šiaurės Vakarų, svyruoja nuo Šiaurės Vakarų ir Šiaurės
Temperatūra 4°C
Drėgmė 70%
Slėgis 1026 hPa
Matomumas 10 km arba daugiau
Mažai debesys ne aukštis 5000 ft

METAR: EHDL 290025Z AUTO 33008KT 310V010 9999 FEW050 04/M01 Q1026 BLU

Laikas: 01:43 (00:43 UTC)


TAF: trūkstamas

Orai ataskaitas ir orų prognozės (METAR, TAF).

turimą stotys yra geltonos ir raudonos taškus žemėlapyje.

Perkelti pele per norėdami pamatyti stoties vardą.

Tada spustelėkite, norėdami matyti oro stebėjimo ir prognozės.

Norėdami pakeisti žemėlapį: spustelėkite ant žalios mygtukų su juodo kryžiaus žemyn,; žalią mygtuką su brūkšneliu, jei norite nutolinti; arba žalių rodyklių gretimoms žemėlapius.


METAR-TAF: